createdAt,value
2018-12-19T00:00:54.407Z,1005.91
2018-12-19T00:01:54.402Z,1005.93
2018-12-19T00:02:54.389Z,1005.91
2018-12-19T00:03:54.356Z,1005.86
2018-12-19T00:04:54.559Z,1005.83
2018-12-19T00:05:54.507Z,1005.77
2018-12-19T00:06:54.497Z,1005.71
2018-12-19T00:07:54.384Z,1005.70
2018-12-19T00:08:54.402Z,1005.69
2018-12-19T00:09:54.498Z,1005.68
2018-12-19T00:10:53.908Z,1005.70
2018-12-19T00:11:54.368Z,1005.66
2018-12-19T00:12:54.345Z,1005.68
2018-12-19T00:13:54.411Z,1005.62
2018-12-19T00:14:54.441Z,1005.62
2018-12-19T00:15:53.895Z,1005.59
2018-12-19T00:16:54.487Z,1005.55
2018-12-19T00:17:54.514Z,1005.52
2018-12-19T00:18:54.465Z,1005.48
2018-12-19T00:19:54.435Z,1005.47
2018-12-19T00:20:54.406Z,1005.45
2018-12-19T00:21:54.324Z,1005.39
2018-12-19T00:22:54.464Z,1005.38
2018-12-19T00:23:54.405Z,1005.41
2018-12-19T00:24:54.422Z,1005.39
2018-12-19T00:25:53.901Z,1005.36
2018-12-19T00:26:54.410Z,1005.31
2018-12-19T00:27:54.425Z,1005.31
2018-12-19T00:28:54.392Z,1005.31
2018-12-19T00:29:54.015Z,1005.36
2018-12-19T00:30:55.912Z,1005.27
2018-12-19T00:31:55.910Z,1005.27
2018-12-19T00:32:54.332Z,1005.32
2018-12-19T00:33:53.577Z,1005.27
2018-12-19T00:34:53.729Z,1005.24
2018-12-19T00:35:55.883Z,1005.20
2018-12-19T00:36:53.899Z,1005.17
2018-12-19T00:37:54.359Z,1005.16
2018-12-19T00:38:53.767Z,1005.21
2018-12-19T00:39:53.793Z,1005.17
2018-12-19T00:40:53.811Z,1005.12
2018-12-19T00:41:53.647Z,1005.08
2018-12-19T00:42:53.778Z,1005.10
2018-12-19T00:43:53.821Z,1005.11
2018-12-19T00:44:53.796Z,1005.10
2018-12-19T00:45:54.342Z,1005.11
2018-12-19T00:46:54.311Z,1005.09
2018-12-19T00:47:53.909Z,1005.13
2018-12-19T00:48:53.907Z,1005.17
2018-12-19T00:49:53.905Z,1005.16
2018-12-19T00:50:54.303Z,1005.26
2018-12-19T00:51:53.896Z,1005.25
2018-12-19T00:52:53.901Z,1005.26
2018-12-19T00:53:55.918Z,1005.24
2018-12-19T00:54:54.347Z,1005.28
2018-12-19T00:55:53.619Z,1005.26
2018-12-19T00:56:53.653Z,1005.27
2018-12-19T00:57:53.620Z,1005.32
2018-12-19T00:58:53.106Z,1005.28
2018-12-19T00:59:53.654Z,1005.37
2018-12-19T01:00:53.411Z,1005.28
2018-12-19T01:01:53.893Z,1005.26
2018-12-19T01:02:53.910Z,1005.30
2018-12-19T01:03:53.910Z,1005.40
2018-12-19T01:04:54.031Z,1005.42
2018-12-19T01:05:54.303Z,1005.35
2018-12-19T01:06:53.351Z,1005.24
2018-12-19T01:07:53.571Z,1005.26
2018-12-19T01:08:53.328Z,1005.25
2018-12-19T01:09:53.576Z,1005.25
2018-12-19T01:10:53.619Z,1005.23
2018-12-19T01:11:53.591Z,1005.24
2018-12-19T01:12:53.639Z,1005.21
2018-12-19T01:13:53.710Z,1005.28
2018-12-19T01:14:53.205Z,1005.24
2018-12-19T01:15:53.691Z,1005.25
2018-12-19T01:16:53.139Z,1005.23
2018-12-19T01:17:53.708Z,1005.20
2018-12-19T01:18:53.661Z,1005.22
2018-12-19T01:19:53.520Z,1005.20
2018-12-19T01:20:53.520Z,1005.13
2018-12-19T01:21:53.417Z,1005.10
2018-12-19T01:22:53.896Z,1005.05
2018-12-19T01:23:53.901Z,1005.11
2018-12-19T01:24:53.897Z,1005.13
2018-12-19T01:25:53.918Z,1005.10
2018-12-19T01:26:53.919Z,1005.12
2018-12-19T01:27:53.920Z,1005.13
2018-12-19T01:28:53.922Z,1005.09
2018-12-19T01:29:53.938Z,1005.00
2018-12-19T01:30:54.189Z,1004.96
2018-12-19T01:31:53.906Z,1004.96
2018-12-19T01:32:53.927Z,1004.98
2018-12-19T01:33:54.361Z,1005.04
2018-12-19T01:34:53.676Z,1004.93
2018-12-19T01:35:53.565Z,1004.96
2018-12-19T01:36:53.847Z,1004.95
2018-12-19T01:37:53.280Z,1004.95
2018-12-19T01:38:53.248Z,1004.88
2018-12-19T01:39:53.171Z,1004.88
2018-12-19T01:40:52.907Z,1004.88
2018-12-19T01:41:55.059Z,1004.85
2018-12-19T01:42:53.243Z,1004.85
2018-12-19T01:43:53.427Z,1004.82
2018-12-19T01:44:53.412Z,1004.82
2018-12-19T01:45:54.438Z,1004.80
2018-12-19T01:46:53.371Z,1004.82
2018-12-19T01:47:55.448Z,1004.81
2018-12-19T01:48:53.429Z,1004.83
2018-12-19T01:49:53.416Z,1004.82
2018-12-19T01:50:53.425Z,1004.81
2018-12-19T01:51:53.376Z,1004.86
2018-12-19T01:52:53.793Z,1004.82
2018-12-19T01:53:53.361Z,1004.81
2018-12-19T01:54:53.695Z,1004.74
2018-12-19T01:55:53.871Z,1004.69
2018-12-19T01:56:55.486Z,1004.69
2018-12-19T01:57:53.412Z,1004.63
2018-12-19T01:58:53.452Z,1004.65
2018-12-19T01:59:53.258Z,1004.61
2018-12-19T02:00:53.880Z,1004.74
2018-12-19T02:01:53.410Z,1004.62
2018-12-19T02:02:52.867Z,1004.68
2018-12-19T02:03:52.919Z,1004.66
2018-12-19T02:04:53.412Z,1004.74
2018-12-19T02:05:53.567Z,1004.69
2018-12-19T02:06:53.462Z,1004.65
2018-12-19T02:07:52.920Z,1004.57
2018-12-19T02:08:53.490Z,1004.60
2018-12-19T02:09:53.435Z,1004.62
2018-12-19T02:10:53.349Z,1004.57
2018-12-19T02:11:53.316Z,1004.68
2018-12-19T02:12:53.377Z,1004.69
2018-12-19T02:13:53.377Z,1004.66
2018-12-19T02:14:52.897Z,1004.67
2018-12-19T02:15:53.412Z,1004.63
2018-12-19T02:16:53.411Z,1004.59
2018-12-19T02:17:53.421Z,1004.62
2018-12-19T02:18:53.419Z,1004.59
2018-12-19T02:19:53.403Z,1004.59
2018-12-19T02:20:53.423Z,1004.64
2018-12-19T02:21:53.406Z,1004.66
2018-12-19T02:22:53.344Z,1004.63
2018-12-19T02:23:53.375Z,1004.65
2018-12-19T02:24:53.418Z,1004.69
2018-12-19T02:25:53.420Z,1004.69
2018-12-19T02:26:53.421Z,1004.66
2018-12-19T02:27:53.416Z,1004.67
2018-12-19T02:28:52.923Z,1004.62
2018-12-19T02:29:53.424Z,1004.60
2018-12-19T02:30:53.425Z,1004.64
2018-12-19T02:31:53.426Z,1004.74
2018-12-19T02:32:53.378Z,1004.86
2018-12-19T02:33:53.440Z,1004.79
2018-12-19T02:34:53.487Z,1004.86
2018-12-19T02:35:53.417Z,1004.83
2018-12-19T02:36:53.402Z,1004.85
2018-12-19T02:37:53.406Z,1004.86
2018-12-19T02:38:53.448Z,1004.85
2018-12-19T02:39:53.411Z,1004.91
2018-12-19T02:40:53.372Z,1004.94
2018-12-19T02:41:53.813Z,1004.95
2018-12-19T02:42:53.166Z,1004.97
2018-12-19T02:43:53.084Z,1004.99
2018-12-19T02:44:53.019Z,1004.97
2018-12-19T02:45:52.952Z,1004.98
2018-12-19T02:46:53.343Z,1004.98
2018-12-19T02:47:53.269Z,1004.91
2018-12-19T02:48:53.289Z,1004.96
2018-12-19T02:49:52.943Z,1004.97
2018-12-19T02:50:52.874Z,1005.01
2018-12-19T02:51:53.319Z,1004.99
2018-12-19T02:52:53.383Z,1004.97
2018-12-19T02:53:52.869Z,1004.93
2018-12-19T02:54:52.906Z,1004.94
2018-12-19T02:55:54.976Z,1004.94
2018-12-19T02:56:53.383Z,1004.94
2018-12-19T02:57:54.948Z,1004.93
2018-12-19T02:58:53.299Z,1004.94
2018-12-19T02:59:54.942Z,1004.93
2018-12-19T03:00:53.448Z,1004.95
2018-12-19T03:01:53.360Z,1004.94
2018-12-19T03:02:54.887Z,1004.91
2018-12-19T03:03:54.933Z,1004.86
2018-12-19T03:04:53.343Z,1004.84
2018-12-19T03:05:53.477Z,1004.80
2018-12-19T03:06:52.936Z,1004.80
2018-12-19T03:07:53.005Z,1004.74
2018-12-19T03:08:52.999Z,1004.73
2018-12-19T03:09:53.039Z,1004.78
2018-12-19T03:10:52.902Z,1004.78
2018-12-19T03:11:53.334Z,1004.88
2018-12-19T03:12:52.856Z,1004.84
2018-12-19T03:13:52.404Z,1004.90
2018-12-19T03:14:52.943Z,1004.89
2018-12-19T03:15:52.882Z,1004.96
2018-12-19T03:16:52.409Z,1004.90
2018-12-19T03:17:52.941Z,1004.91
2018-12-19T03:18:52.891Z,1004.92
2018-12-19T03:19:52.927Z,1004.91
2018-12-19T03:20:53.191Z,1004.92
2018-12-19T03:21:52.931Z,1004.91
2018-12-19T03:22:52.939Z,1004.88
2018-12-19T03:23:52.883Z,1004.88
2018-12-19T03:24:52.932Z,1004.86
2018-12-19T03:25:52.834Z,1004.85
2018-12-19T03:26:52.907Z,1004.78
2018-12-19T03:27:52.925Z,1004.76
2018-12-19T03:28:52.848Z,1004.76
2018-12-19T03:29:52.916Z,1004.71
2018-12-19T03:30:53.323Z,1004.79
2018-12-19T03:31:52.950Z,1004.78
2018-12-19T03:32:52.918Z,1004.72
2018-12-19T03:33:52.907Z,1004.74
2018-12-19T03:34:52.920Z,1004.73
2018-12-19T03:35:52.916Z,1004.79
2018-12-19T03:36:52.952Z,1004.89
2018-12-19T03:37:52.482Z,1004.79
2018-12-19T03:38:53.313Z,1004.83
2018-12-19T03:39:52.156Z,1004.86
2018-12-19T03:40:52.355Z,1004.88
2018-12-19T03:41:52.866Z,1004.91
2018-12-19T03:42:52.969Z,1004.90
2018-12-19T03:43:53.037Z,1004.89
2018-12-19T03:44:52.992Z,1004.91
2018-12-19T03:45:52.146Z,1004.88
2018-12-19T03:46:52.404Z,1004.91
2018-12-19T03:47:53.044Z,1004.83
2018-12-19T03:48:58.953Z,1004.72
2018-12-19T03:49:52.890Z,1004.79
2018-12-19T03:50:52.933Z,1004.77
2018-12-19T03:51:52.819Z,1004.70
2018-12-19T03:52:52.946Z,1004.66
2018-12-19T03:53:52.883Z,1004.65
2018-12-19T03:54:52.891Z,1004.68
2018-12-19T03:55:54.436Z,1004.67
2018-12-19T03:56:52.851Z,1004.61
2018-12-19T03:57:52.409Z,1004.60
2018-12-19T03:58:53.128Z,1004.58
2018-12-19T03:59:52.476Z,1004.55
2018-12-19T04:00:52.792Z,1004.54
2018-12-19T04:01:54.458Z,1004.56
2018-12-19T04:02:54.414Z,1004.53
2018-12-19T04:03:53.024Z,1004.54
2018-12-19T04:04:54.449Z,1004.51
2018-12-19T04:05:54.458Z,1004.46
2018-12-19T04:06:52.930Z,1004.44
2018-12-19T04:07:52.937Z,1004.45
2018-12-19T04:08:52.425Z,1004.39
2018-12-19T04:09:57.626Z,1004.43
2018-12-19T04:10:52.460Z,1004.40
2018-12-19T04:11:52.828Z,1004.40
2018-12-19T04:12:52.417Z,1004.29
2018-12-19T04:13:53.102Z,1004.36
2018-12-19T04:14:52.968Z,1004.24
2018-12-19T04:15:52.905Z,1004.29
2018-12-19T04:16:52.445Z,1004.28
2018-12-19T04:17:52.419Z,1004.31
2018-12-19T04:18:52.435Z,1004.27
2018-12-19T04:19:52.468Z,1004.32
2018-12-19T04:20:52.419Z,1004.26
2018-12-19T04:21:51.934Z,1004.28
2018-12-19T04:22:52.422Z,1004.25
2018-12-19T04:23:51.992Z,1004.24
2018-12-19T04:24:52.439Z,1004.18
2018-12-19T04:25:52.415Z,1004.19
2018-12-19T04:26:52.854Z,1004.16
2018-12-19T04:27:52.188Z,1004.15
2018-12-19T04:28:52.053Z,1004.09
2018-12-19T04:29:52.260Z,1004.00
2018-12-19T04:30:51.916Z,1004.06
2018-12-19T04:31:52.514Z,1004.06
2018-12-19T04:32:52.772Z,1004.04
2018-12-19T04:33:52.417Z,1004.05
2018-12-19T04:34:52.885Z,1004.04
2018-12-19T04:35:52.432Z,1004.00
2018-12-19T04:36:52.460Z,1004.00
2018-12-19T04:37:52.420Z,1004.00
2018-12-19T04:38:52.435Z,1003.98
2018-12-19T04:39:52.395Z,1003.99
2018-12-19T04:40:52.418Z,1003.99
2018-12-19T04:41:52.353Z,1003.97
2018-12-19T04:42:52.292Z,1003.90
2018-12-19T04:43:52.400Z,1003.86
2018-12-19T04:44:52.490Z,1003.82
2018-12-19T04:45:52.077Z,1003.84
2018-12-19T04:46:52.555Z,1003.80
2018-12-19T04:47:52.418Z,1003.83
2018-12-19T04:48:52.462Z,1003.88
2018-12-19T04:49:52.456Z,1003.82
2018-12-19T04:50:52.286Z,1003.86
2018-12-19T04:51:52.423Z,1003.89
2018-12-19T04:52:52.430Z,1003.88
2018-12-19T04:53:52.435Z,1003.96
2018-12-19T04:54:52.394Z,1003.97
2018-12-19T04:55:52.613Z,1003.89
2018-12-19T04:56:52.396Z,1003.94
2018-12-19T04:57:52.235Z,1004.02
2018-12-19T04:58:52.155Z,1004.00
2018-12-19T04:59:52.266Z,1003.89
2018-12-19T05:00:52.019Z,1003.91
2018-12-19T05:01:51.953Z,1003.98
2018-12-19T05:02:52.470Z,1003.94
2018-12-19T05:03:52.497Z,1003.98
2018-12-19T05:04:58.834Z,1003.96
2018-12-19T05:05:52.080Z,1003.92
2018-12-19T05:06:52.027Z,1003.96
2018-12-19T05:07:53.613Z,1003.99
2018-12-19T05:08:53.686Z,1003.98
2018-12-19T05:09:57.613Z,1004.05
2018-12-19T05:10:51.766Z,1004.07
2018-12-19T05:11:52.105Z,1004.07
2018-12-19T05:12:52.505Z,1004.11
2018-12-19T05:13:52.509Z,1004.13
2018-12-19T05:14:52.411Z,1004.12
2018-12-19T05:15:52.185Z,1004.12
2018-12-19T05:16:52.293Z,1004.14
2018-12-19T05:17:53.936Z,1004.21
2018-12-19T05:18:53.941Z,1004.17
2018-12-19T05:19:52.469Z,1004.14
2018-12-19T05:20:53.939Z,1004.16
2018-12-19T05:21:52.272Z,1004.17
2018-12-19T05:22:51.773Z,1004.19
2018-12-19T05:23:51.939Z,1004.18
2018-12-19T05:24:52.348Z,1004.18
2018-12-19T05:25:52.395Z,1004.20
2018-12-19T05:26:51.925Z,1004.21
2018-12-19T05:27:51.943Z,1004.19
2018-12-19T05:28:51.902Z,1004.24
2018-12-19T05:29:53.219Z,1004.30
2018-12-19T05:30:51.937Z,1004.27
2018-12-19T05:31:51.932Z,1004.29
2018-12-19T05:32:52.374Z,1004.29
2018-12-19T05:33:52.042Z,1004.27
2018-12-19T05:34:51.936Z,1004.26
2018-12-19T05:35:52.375Z,1004.28
2018-12-19T05:36:51.249Z,1004.29
2018-12-19T05:37:51.600Z,1004.29
2018-12-19T05:38:51.927Z,1004.29
2018-12-19T05:39:52.013Z,1004.27
2018-12-19T05:40:51.933Z,1004.26
2018-12-19T05:41:51.925Z,1004.27
2018-12-19T05:42:51.899Z,1004.25
2018-12-19T05:43:52.034Z,1004.33
2018-12-19T05:44:51.979Z,1004.34
2018-12-19T05:45:51.546Z,1004.30
2018-12-19T05:46:51.538Z,1004.37
2018-12-19T05:47:51.600Z,1004.34
2018-12-19T05:48:51.941Z,1004.28
2018-12-19T05:49:51.957Z,1004.36
2018-12-19T05:50:51.969Z,1004.34
2018-12-19T05:51:51.841Z,1004.39
2018-12-19T05:52:52.392Z,1004.40
2018-12-19T05:53:51.093Z,1004.41
2018-12-19T05:54:51.438Z,1004.40
2018-12-19T05:55:52.395Z,1004.43
2018-12-19T05:56:51.951Z,1004.51
2018-12-19T05:57:51.928Z,1004.48
2018-12-19T05:58:52.051Z,1004.50
2018-12-19T05:59:51.930Z,1004.50
2018-12-19T06:00:52.122Z,1004.51
2018-12-19T06:01:51.908Z,1004.52
2018-12-19T06:02:51.861Z,1004.50
2018-12-19T06:03:51.987Z,1004.46
2018-12-19T06:04:52.084Z,1004.50
2018-12-19T06:05:51.515Z,1004.49
2018-12-19T06:06:51.951Z,1004.49
2018-12-19T06:07:51.443Z,1004.47
2018-12-19T06:08:51.963Z,1004.46
2018-12-19T06:09:52.352Z,1004.51
2018-12-19T06:10:51.986Z,1004.51
2018-12-19T06:11:51.947Z,1004.52
2018-12-19T06:12:51.936Z,1004.53
2018-12-19T06:13:54.025Z,1004.51
2018-12-19T06:14:51.998Z,1004.51
2018-12-19T06:15:51.720Z,1004.48
2018-12-19T06:16:51.412Z,1004.53
2018-12-19T06:17:52.389Z,1004.47
2018-12-19T06:18:51.398Z,1004.44
2018-12-19T06:19:51.565Z,1004.46
2018-12-19T06:20:51.443Z,1004.49
2018-12-19T06:21:52.004Z,1004.48
2018-12-19T06:22:53.323Z,1004.48
2018-12-19T06:23:51.792Z,1004.52
2018-12-19T06:24:51.837Z,1004.45
2018-12-19T06:25:53.889Z,1004.55
2018-12-19T06:26:51.778Z,1004.57
2018-12-19T06:27:50.905Z,1004.55
2018-12-19T06:28:53.901Z,1004.60
2018-12-19T06:29:52.181Z,1004.60
2018-12-19T06:30:52.044Z,1004.52
2018-12-19T06:31:52.133Z,1004.54
2018-12-19T06:32:52.392Z,1004.68
2018-12-19T06:33:58.817Z,1004.64
2018-12-19T06:34:53.462Z,1004.58
2018-12-19T06:35:57.917Z,1004.55
2018-12-19T06:36:51.315Z,1004.56
2018-12-19T06:37:51.433Z,1004.60
2018-12-19T06:39:00.399Z,1004.56
2018-12-19T06:40:05.100Z,1004.54
2018-12-19T06:40:51.451Z,1004.53
2018-12-19T06:41:51.437Z,1004.54
2018-12-19T06:42:51.466Z,1004.50
2018-12-19T06:43:52.873Z,1004.67
2018-12-19T06:44:51.294Z,1004.64
2018-12-19T06:45:51.414Z,1004.69
2018-12-19T06:46:51.894Z,1004.66
2018-12-19T06:47:51.467Z,1004.65
2018-12-19T06:48:51.443Z,1004.62
2018-12-19T06:49:51.907Z,1004.65
2018-12-19T06:50:51.876Z,1004.70
2018-12-19T06:51:52.010Z,1004.72
2018-12-19T06:52:51.169Z,1004.71
2018-12-19T06:53:51.898Z,1004.78
2018-12-19T06:54:49.257Z,1004.77
2018-12-19T06:55:51.391Z,1004.72
2018-12-19T06:56:51.458Z,1004.83
2018-12-19T06:57:51.450Z,1004.81
2018-12-19T06:58:51.901Z,1004.82
2018-12-19T06:59:51.859Z,1004.80
2018-12-19T07:00:51.590Z,1004.82
2018-12-19T07:01:51.917Z,1004.70
2018-12-19T07:02:51.352Z,1004.79
2018-12-19T07:03:50.710Z,1004.78
2018-12-19T07:04:51.877Z,1004.80
2018-12-19T07:05:51.459Z,1004.77
2018-12-19T07:06:51.899Z,1004.81
2018-12-19T07:07:51.879Z,1004.80
2018-12-19T07:08:51.432Z,1004.81
2018-12-19T07:09:51.548Z,1004.79
2018-12-19T07:10:51.373Z,1004.86
2018-12-19T07:11:51.480Z,1004.86
2018-12-19T07:12:51.453Z,1004.84
2018-12-19T07:13:51.351Z,1004.88
2018-12-19T07:14:51.050Z,1004.89
2018-12-19T07:15:51.876Z,1004.82
2018-12-19T07:16:51.839Z,1004.83
2018-12-19T07:17:51.901Z,1004.85
2018-12-19T07:18:51.073Z,1004.85
2018-12-19T07:19:51.410Z,1004.90
2018-12-19T07:20:51.886Z,1004.81
2018-12-19T07:21:51.878Z,1004.88
2018-12-19T07:22:51.405Z,1005.00
2018-12-19T07:23:51.440Z,1004.89
2018-12-19T07:24:51.556Z,1004.85
2018-12-19T07:25:51.899Z,1004.91
2018-12-19T07:26:51.947Z,1004.95
2018-12-19T07:27:49.012Z,1005.03
2018-12-19T07:28:51.445Z,1005.03
2018-12-19T07:29:51.561Z,1005.03
2018-12-19T07:30:51.583Z,1005.00
2018-12-19T07:31:51.552Z,1005.02
2018-12-19T07:32:51.495Z,1005.05
2018-12-19T07:33:52.977Z,1005.00
2018-12-19T07:34:52.981Z,1005.04
2018-12-19T07:35:51.680Z,1005.11
2018-12-19T07:36:53.053Z,1005.09
2018-12-19T07:37:51.447Z,1005.08
2018-12-19T07:38:53.114Z,1005.05
2018-12-19T07:39:51.352Z,1005.08
2018-12-19T07:40:51.313Z,1005.12
2018-12-19T07:41:51.401Z,1005.15
2018-12-19T07:42:50.976Z,1005.08
2018-12-19T07:43:51.506Z,1005.16
2018-12-19T07:44:51.462Z,1005.12
2018-12-19T07:45:51.418Z,1005.21
2018-12-19T07:46:50.963Z,1005.25
2018-12-19T07:47:51.014Z,1005.21
2018-12-19T07:48:51.550Z,1005.18
2018-12-19T07:49:50.692Z,1005.17
2018-12-19T07:50:50.385Z,1005.17
2018-12-19T07:51:50.915Z,1005.14
2018-12-19T07:52:52.559Z,1005.13
2018-12-19T07:53:51.378Z,1005.11
2018-12-19T07:54:50.971Z,1005.16
2018-12-19T07:55:50.976Z,1005.15
2018-12-19T07:56:50.957Z,1005.11
2018-12-19T07:57:51.412Z,1005.04
2018-12-19T07:58:51.400Z,1005.16
2018-12-19T07:59:51.410Z,1005.17
2018-12-19T08:00:50.922Z,1005.15
2018-12-19T08:01:51.342Z,1005.11
2018-12-19T08:02:51.155Z,1005.11
2018-12-19T08:03:51.395Z,1005.20
2018-12-19T08:04:50.983Z,1005.20
2018-12-19T08:05:51.427Z,1005.24
2018-12-19T08:06:52.422Z,1005.23
2018-12-19T08:07:50.888Z,1005.27
2018-12-19T08:08:50.256Z,1005.26
2018-12-19T08:09:50.753Z,1005.26
2018-12-19T08:10:52.255Z,1005.24
2018-12-19T08:12:56.967Z,1005.32
2018-12-19T08:13:50.356Z,1005.37
2018-12-19T08:14:56.863Z,1005.28
2018-12-19T08:15:51.415Z,1005.30
2018-12-19T08:16:50.705Z,1005.40
2018-12-19T08:17:51.047Z,1005.45
2018-12-19T08:18:51.066Z,1005.42
2018-12-19T08:19:50.961Z,1005.41
2018-12-19T08:20:51.020Z,1005.39
2018-12-19T08:21:50.961Z,1005.41
2018-12-19T08:22:50.923Z,1005.50
2018-12-19T08:23:51.015Z,1005.43
2018-12-19T08:24:50.451Z,1005.42
2018-12-19T08:25:50.541Z,1005.39
2018-12-19T08:26:50.906Z,1005.42
2018-12-19T08:27:51.403Z,1005.44
2018-12-19T08:28:51.303Z,1005.47
2018-12-19T08:29:50.871Z,1005.45
2018-12-19T08:30:50.990Z,1005.46
2018-12-19T08:31:51.411Z,1005.54
2018-12-19T08:32:51.220Z,1005.48
2018-12-19T08:33:50.880Z,1005.51
2018-12-19T08:34:50.981Z,1005.50
2018-12-19T08:35:50.967Z,1005.61
2018-12-19T08:36:51.410Z,1005.54
2018-12-19T08:37:50.574Z,1005.57
2018-12-19T08:38:50.550Z,1005.53
2018-12-19T08:39:50.486Z,1005.56
2018-12-19T08:40:50.534Z,1005.58
2018-12-19T08:41:50.966Z,1005.70
2018-12-19T08:42:50.966Z,1005.60
2018-12-19T08:43:50.989Z,1005.62
2018-12-19T08:44:51.028Z,1005.67
2018-12-19T08:45:50.281Z,1005.67
2018-12-19T08:46:50.557Z,1005.66
2018-12-19T08:47:51.408Z,1005.66
2018-12-19T08:48:50.817Z,1005.72
2018-12-19T08:49:50.423Z,1005.67
2018-12-19T08:50:50.762Z,1005.75
2018-12-19T08:51:51.457Z,1005.69
2018-12-19T08:52:52.044Z,1005.73
2018-12-19T08:53:51.138Z,1005.75
2018-12-19T08:54:50.977Z,1005.73
2018-12-19T08:55:50.923Z,1005.80
2018-12-19T08:56:51.124Z,1005.78
2018-12-19T08:57:50.745Z,1005.82
2018-12-19T08:58:50.469Z,1005.80
2018-12-19T08:59:50.485Z,1005.79
2018-12-19T09:00:50.487Z,1005.82
2018-12-19T09:01:50.691Z,1005.83
2018-12-19T09:02:50.924Z,1005.78
2018-12-19T09:03:50.478Z,1005.81
2018-12-19T09:04:51.168Z,1005.80
2018-12-19T09:05:50.796Z,1005.79
2018-12-19T09:06:50.909Z,1005.84
2018-12-19T09:07:50.129Z,1005.82
2018-12-19T09:08:50.345Z,1005.81
2018-12-19T09:09:50.889Z,1005.82
2018-12-19T09:10:57.419Z,1005.82
2018-12-19T09:11:50.428Z,1005.85
2018-12-19T09:12:50.651Z,1005.86
2018-12-19T09:13:51.027Z,1005.85
2018-12-19T09:14:50.620Z,1005.85
2018-12-19T09:15:50.922Z,1005.86
2018-12-19T09:16:50.955Z,1005.89
2018-12-19T09:17:50.311Z,1005.91
2018-12-19T09:18:51.175Z,1005.90
2018-12-19T09:19:50.545Z,1005.88
2018-12-19T09:20:50.940Z,1005.88
2018-12-19T09:21:50.488Z,1005.90
2018-12-19T09:22:50.929Z,1005.90
2018-12-19T09:23:50.330Z,1005.88
2018-12-19T09:24:50.528Z,1005.87
2018-12-19T09:25:50.918Z,1005.88
2018-12-19T09:26:50.915Z,1005.94
2018-12-19T09:27:50.241Z,1005.96
2018-12-19T09:28:50.055Z,1005.95
2018-12-19T09:29:50.301Z,1005.95
2018-12-19T09:30:51.865Z,1006.01
2018-12-19T09:31:50.915Z,1006.02
2018-12-19T09:32:50.466Z,1005.97
2018-12-19T09:34:50.751Z,1006.04
2018-12-19T09:35:50.897Z,1005.99
2018-12-19T09:36:50.893Z,1006.11
2018-12-19T09:37:50.233Z,1006.09
2018-12-19T09:38:50.494Z,1006.07
2018-12-19T09:39:50.874Z,1006.16
2018-12-19T09:40:50.446Z,1006.11
2018-12-19T09:41:50.941Z,1006.15
2018-12-19T09:42:50.079Z,1006.16
2018-12-19T09:43:50.613Z,1006.12
2018-12-19T09:44:51.226Z,1006.15
2018-12-19T09:45:50.896Z,1006.12
2018-12-19T09:46:50.899Z,1006.14
2018-12-19T09:47:49.524Z,1006.08
2018-12-19T09:48:49.992Z,1006.18
2018-12-19T09:49:50.479Z,1006.16
2018-12-19T09:50:50.588Z,1006.19
2018-12-19T09:51:50.915Z,1006.18
2018-12-19T09:52:50.015Z,1006.13
2018-12-19T09:53:50.754Z,1006.20
2018-12-19T09:54:50.107Z,1006.18
2018-12-19T09:55:50.225Z,1006.13
2018-12-19T09:56:50.130Z,1006.14
2018-12-19T09:57:50.894Z,1006.16
2018-12-19T09:58:50.481Z,1006.16
2018-12-19T09:59:50.675Z,1006.16
2018-12-19T10:00:50.452Z,1006.14
2018-12-19T10:01:50.483Z,1006.10
2018-12-19T10:02:49.866Z,1006.14
2018-12-19T10:03:50.513Z,1006.13
2018-12-19T10:04:52.299Z,1006.08
2018-12-19T10:05:50.425Z,1006.09
2018-12-19T10:06:50.574Z,1006.09
2018-12-19T10:07:50.567Z,1006.05
2018-12-19T10:08:52.365Z,1006.05
2018-12-19T10:09:50.505Z,1006.03
2018-12-19T10:10:49.990Z,1006.01
2018-12-19T10:11:50.427Z,1006.03
2018-12-19T10:12:50.125Z,1005.97
2018-12-19T10:13:49.662Z,1005.96
2018-12-19T10:14:50.047Z,1005.97
2018-12-19T10:15:49.990Z,1005.98
2018-12-19T10:16:50.196Z,1005.98
2018-12-19T10:17:49.671Z,1005.92
2018-12-19T10:18:49.957Z,1005.93
2018-12-19T10:19:50.375Z,1005.95
2018-12-19T10:20:49.977Z,1005.90
2018-12-19T10:21:50.403Z,1005.93
2018-12-19T10:22:49.571Z,1005.86
2018-12-19T10:23:49.852Z,1005.83
2018-12-19T10:24:49.677Z,1005.91
2018-12-19T10:25:49.756Z,1005.87
2018-12-19T10:26:49.995Z,1005.85
2018-12-19T10:27:50.432Z,1005.86
2018-12-19T10:28:49.793Z,1005.85
2018-12-19T10:29:50.398Z,1005.84
2018-12-19T10:30:49.960Z,1005.84
2018-12-19T10:31:50.143Z,1005.86
2018-12-19T10:32:50.414Z,1005.85
2018-12-19T10:33:50.068Z,1005.87
2018-12-19T10:34:55.847Z,1005.92
2018-12-19T10:35:50.465Z,1005.85
2018-12-19T10:36:49.595Z,1005.87
2018-12-19T10:37:50.293Z,1005.88
2018-12-19T10:38:50.428Z,1005.83
2018-12-19T10:39:50.027Z,1005.94
2018-12-19T10:40:50.419Z,1005.88
2018-12-19T10:41:50.154Z,1005.91
2018-12-19T10:42:49.989Z,1005.93
2018-12-19T10:43:49.973Z,1005.95
2018-12-19T10:44:50.038Z,1005.96
2018-12-19T10:45:49.640Z,1005.82
2018-12-19T10:46:49.986Z,1005.87
2018-12-19T10:47:50.435Z,1005.86
2018-12-19T10:48:49.604Z,1005.87
2018-12-19T10:49:50.254Z,1005.88
2018-12-19T10:50:50.444Z,1005.89
2018-12-19T10:51:49.699Z,1005.84
2018-12-19T10:52:49.252Z,1005.85
2018-12-19T10:53:49.860Z,1005.82
2018-12-19T10:54:49.611Z,1005.85
2018-12-19T10:55:49.935Z,1005.86
2018-12-19T10:56:49.175Z,1005.86
2018-12-19T10:57:49.721Z,1005.83
2018-12-19T10:58:52.058Z,1005.90
2018-12-19T10:59:50.070Z,1005.82
2018-12-19T11:00:50.025Z,1005.87
2018-12-19T11:01:50.437Z,1005.83
2018-12-19T11:02:49.967Z,1005.77
2018-12-19T11:03:50.429Z,1005.78
2018-12-19T11:04:49.825Z,1005.79
2018-12-19T11:05:54.312Z,1005.82
2018-12-19T11:06:50.046Z,1005.80
2018-12-19T11:07:50.403Z,1005.87
2018-12-19T11:08:50.051Z,1005.82
2018-12-19T11:09:49.860Z,1005.86
2018-12-19T11:10:49.906Z,1005.85
2018-12-19T11:11:50.176Z,1005.83
2018-12-19T11:12:49.842Z,1005.86
2018-12-19T11:13:50.431Z,1005.89
2018-12-19T11:14:50.428Z,1005.95
2018-12-19T11:15:50.266Z,1005.91
2018-12-19T11:16:50.398Z,1005.94
2018-12-19T11:17:49.540Z,1005.92
2018-12-19T11:18:49.751Z,1005.93
2018-12-19T11:19:49.890Z,1005.95
2018-12-19T11:20:51.940Z,1005.99
2018-12-19T11:21:59.300Z,1006.01
2018-12-19T11:23:43.881Z,1005.91
2018-12-19T11:24:43.869Z,1005.99
2018-12-19T11:26:38.011Z,1005.94
2018-12-19T11:27:38.428Z,1005.94
2018-12-19T11:29:33.755Z,1005.90
2018-12-19T11:30:33.710Z,1005.85
2018-12-19T11:32:27.948Z,1005.87
2018-12-19T11:33:28.445Z,1005.89
2018-12-19T11:35:22.628Z,1005.82
2018-12-19T11:36:22.529Z,1005.81
2018-12-19T11:38:16.766Z,1005.80
2018-12-19T11:39:18.129Z,1005.80
2018-12-19T11:41:12.074Z,1005.82
2018-12-19T11:42:12.359Z,1005.76
2018-12-19T11:44:06.304Z,1005.77
2018-12-19T11:45:06.548Z,1005.81
2018-12-19T11:47:01.770Z,1005.85
2018-12-19T11:48:01.753Z,1005.80
2018-12-19T11:49:56.332Z,1005.81
2018-12-19T11:50:55.562Z,1005.80
2018-12-19T11:52:50.599Z,1005.81
2018-12-19T11:53:51.014Z,1005.77
2018-12-19T11:55:45.622Z,1005.72
2018-12-19T11:56:45.919Z,1005.74
2018-12-19T11:58:40.423Z,1005.77
2018-12-19T11:59:40.329Z,1005.77
2018-12-19T12:01:34.261Z,1005.73
2018-12-19T12:02:34.508Z,1005.80
2018-12-19T12:04:29.128Z,1005.75
2018-12-19T12:05:29.471Z,1005.77
2018-12-19T12:07:23.286Z,1005.78
2018-12-19T12:08:24.094Z,1005.75
2018-12-19T12:10:18.397Z,1005.80
2018-12-19T12:11:18.469Z,1005.78
2018-12-19T12:13:13.082Z,1005.82
2018-12-19T12:14:13.676Z,1005.81
2018-12-19T12:15:13.134Z,1005.80
2018-12-19T12:16:13.700Z,1005.82
2018-12-19T12:17:13.646Z,1005.78
2018-12-19T12:18:14.057Z,1005.81
2018-12-19T12:20:14.161Z,1005.78
2018-12-19T12:21:13.124Z,1005.81
2018-12-19T12:22:14.075Z,1005.84
2018-12-19T12:23:13.672Z,1005.83
2018-12-19T12:24:19.626Z,1005.81
2018-12-19T12:25:13.758Z,1005.79